Time;durP1;ratioP1;P1;durP2;ratioP2;P2;SDS_P1;SDS_P2;PMS_P1;PMS_P2;Temp;Humidity;BMP_temperature;BMP_pressure;BME280_temperature;BME280_humidity;BME280_pressure;Samples;Min_cycle;Max_cycle;Signal;HPM_P1;HPM_P2
2023/03/02 00:00:13;;;;;;;0.75;0.75;;;1.60;99.90;;;;;;4392194;32;20149;-77
2023/03/02 00:02:39;;;;;;;1.90;1.67;;;1.60;99.90;;;;;;4392917;32;20514;-78
2023/03/02 00:05:07;;;;;;;1.40;1.20;;;1.50;99.90;;;;;;4392900;32;20102;-80
2023/03/02 00:07:33;;;;;;;0.98;0.93;;;1.40;99.90;;;;;;4393491;32;21412;-77
2023/03/02 00:09:59;;;;;;;1.73;1.37;;;1.40;99.90;;;;;;4392479;32;20078;-78
2023/03/02 00:12:27;;;;;;;1.60;1.40;;;1.30;99.90;;;;;;4390275;32;20090;-78
2023/03/02 00:14:53;;;;;;;0.62;0.62;;;1.40;99.90;;;;;;4392717;32;20082;-78
2023/03/02 00:17:26;;;;;;;1.75;1.30;;;1.50;99.90;;;;;;4391190;32;20419;-77
2023/03/02 00:19:53;;;;;;;0.80;0.80;;;1.60;99.90;;;;;;4390614;32;20073;-78
2023/03/02 00:22:19;;;;;;;0.90;0.85;;;1.60;99.90;;;;;;4393620;32;20074;-76
2023/03/02 00:24:45;;;;;;;1.55;1.45;;;1.50;99.90;;;;;;4391850;32;20125;-77
2023/03/02 00:27:10;;;;;;;2.92;1.05;;;1.40;99.90;;;;;;4391419;32;20081;-77
2023/03/02 00:29:36;;;;;;;0.55;0.55;;;1.20;99.90;;;;;;4393576;32;20145;-78
2023/03/02 00:32:02;;;;;;;4.53;1.73;;;1.20;99.90;;;;;;4392114;32;20071;-77
2023/03/02 00:34:31;;;;;;;0.50;0.50;;;1.20;99.90;;;;;;4391513;32;20070;-78
2023/03/02 00:36:57;;;;;;;0.73;0.70;;;1.10;99.90;;;;;;4391511;32;20086;-77
2023/03/02 00:39:23;;;;;;;0.77;0.77;;;0.90;99.90;;;;;;4390061;32;20062;-78
2023/03/02 00:41:48;;;;;;;3.90;1.58;;;1.00;99.90;;;;;;4391995;32;20085;-76
2023/03/02 00:44:16;;;;;;;4.97;2.28;;;1.10;99.90;;;;;;4392092;32;20070;-77
2023/03/02 00:46:42;;;;;;;2.65;1.62;;;1.10;99.90;;;;;;4389226;32;20588;-78
2023/03/02 00:49:07;;;;;;;0.60;0.60;;;1.10;99.90;;;;;;4392118;32;20082;-78
2023/03/02 00:51:33;;;;;;;1.42;0.95;;;1.00;99.90;;;;;;4386013;32;20082;-78
2023/03/02 00:54:01;;;;;;;1.17;1.00;;;0.90;99.90;;;;;;4391786;32;20067;-77
2023/03/02 00:56:27;;;;;;;1.00;1.00;;;1.00;99.90;;;;;;4391546;32;20074;-78
2023/03/02 00:58:52;;;;;;;0.85;0.85;;;0.90;99.90;;;;;;4391164;32;20083;-77
2023/03/02 01:01:18;;;;;;;2.55;1.30;;;0.90;99.90;;;;;;4388052;32;20066;-78
2023/03/02 01:03:43;;;;;;;1.70;1.60;;;0.90;99.90;;;;;;4389982;32;20812;-78
2023/03/02 01:06:18;;;;;;;3.90;1.30;;;1.00;99.90;;;;;;4392779;32;20090;-76
2023/03/02 01:08:44;;;;;;;0.60;0.60;;;1.10;99.90;;;;;;4392231;32;20647;-77
2023/03/02 01:11:20;;;;;;;8.13;1.75;;;1.10;99.90;;;;;;4390755;32;20410;-77
2023/03/02 01:13:47;;;;;;;0.75;0.75;;;1.00;99.90;;;;;;4388145;32;20532;-77
2023/03/02 01:16:13;;;;;;;0.80;0.80;;;1.00;99.90;;;;;;4389470;32;20078;-78
2023/03/02 01:18:39;;;;;;;0.90;0.90;;;1.20;99.90;;;;;;4390872;32;20075;-77
2023/03/02 01:21:09;;;;;;;0.62;0.62;;;1.20;99.90;;;;;;4389545;32;20074;-78
2023/03/02 01:23:35;;;;;;;0.90;0.90;;;1.30;99.90;;;;;;4390672;32;20099;-79
2023/03/02 01:26:01;;;;;;;0.98;0.93;;;1.20;99.90;;;;;;4391008;32;20546;-78
2023/03/02 01:28:27;;;;;;;3.65;2.22;;;1.10;99.90;;;;;;4390111;32;20071;-78
2023/03/02 01:30:53;;;;;;;0.90;0.90;;;1.20;99.90;;;;;;4388756;32;20090;-78
2023/03/02 01:33:19;;;;;;;0.98;0.80;;;1.20;99.90;;;;;;4389234;32;20078;-79
2023/03/02 01:35:46;;;;;;;1.23;1.12;;;1.20;99.90;;;;;;4391113;32;20386;-77
2023/03/02 01:38:11;;;;;;;0.85;0.85;;;1.20;99.90;;;;;;4390934;32;20083;-78
2023/03/02 01:40:37;;;;;;;1.20;1.10;;;1.20;99.90;;;;;;4389153;32;20836;-78
2023/03/02 01:43:11;;;;;;;1.10;1.00;;;1.20;99.90;;;;;;4391538;32;20074;-79
2023/03/02 01:45:55;;;;;;;2.10;1.73;;;1.10;99.90;;;;;;4391083;32;20086;-78
2023/03/02 01:48:26;;;;;;;2.83;1.98;;;1.10;99.90;;;;;;4377956;32;20085;-78
2023/03/02 01:50:52;;;;;;;1.12;1.08;;;1.00;99.90;;;;;;4389305;32;20090;-79
2023/03/02 01:53:19;;;;;;;8.40;1.83;;;1.00;99.90;;;;;;4391055;32;20503;-78
2023/03/02 01:55:44;;;;;;;0.90;0.90;;;0.80;99.90;;;;;;4389666;32;21255;-79
2023/03/02 01:58:13;;;;;;;0.68;0.68;;;0.80;99.90;;;;;;4390817;32;20078;-79
2023/03/02 02:00:40;;;;;;;0.70;0.70;;;0.60;99.90;;;;;;4389883;32;20526;-78
2023/03/02 02:03:15;;;;;;;0.75;0.75;;;0.60;99.90;;;;;;4389215;32;20455;-78
2023/03/02 02:05:44;;;;;;;0.70;0.70;;;0.70;99.90;;;;;;4389805;32;20386;-77
2023/03/02 02:08:10;;;;;;;0.70;0.70;;;0.70;99.90;;;;;;4390392;32;20098;-78
2023/03/02 02:10:36;;;;;;;0.70;0.70;;;0.70;99.90;;;;;;4387095;32;20066;-77
2023/03/02 02:13:01;;;;;;;0.88;0.88;;;0.80;99.90;;;;;;4391670;32;20411;-78
2023/03/02 02:15:27;;;;;;;1.20;1.10;;;0.90;99.90;;;;;;4392477;32;20099;-78
2023/03/02 02:17:54;;;;;;;0.88;0.88;;;0.90;99.90;;;;;;4391037;32;20605;-78
2023/03/02 02:20:29;;;;;;;1.45;1.35;;;1.00;99.90;;;;;;4390843;32;20078;-78
2023/03/02 02:23:06;;;;;;;7.25;1.30;;;1.00;99.90;;;;;;4388990;32;20073;-79
2023/03/02 02:25:56;;;;;;;1.17;1.17;;;1.00;99.90;;;;;;4387245;32;20057;-78
2023/03/02 02:28:29;;;;;;;0.50;0.50;;;1.00;99.90;;;;;;4379183;32;20078;-78
2023/03/02 02:31:05;;;;;;;1.23;1.15;;;1.10;99.90;;;;;;4387152;32;20133;-79
2023/03/02 02:33:32;;;;;;;1.23;1.12;;;0.90;99.90;;;;;;4387678;32;20089;-78
2023/03/02 02:36:04;;;;;;;1.90;1.52;;;0.70;99.90;;;;;;4385728;32;20116;-78
2023/03/02 02:38:31;;;;;;;0.57;0.57;;;0.60;99.90;;;;;;4388265;32;20090;-78
2023/03/02 02:41:00;;;;;;;0.50;0.50;;;0.50;99.90;;;;;;4388668;32;20144;-78
2023/03/02 02:43:29;;;;;;;0.70;0.70;;;0.50;99.90;;;;;;4391788;32;20818;-79
2023/03/02 02:45:56;;;;;;;5.68;2.47;;;0.50;99.90;;;;;;4389793;32;20082;-77
2023/03/02 02:48:24;;;;;;;1.12;0.98;;;0.50;99.90;;;;;;4390586;32;20129;-79
2023/03/02 02:50:59;;;;;;;0.55;0.55;;;0.50;99.90;;;;;;4392292;32;20098;-78
2023/03/02 02:53:29;;;;;;;1.00;1.00;;;0.50;99.90;;;;;;4386679;32;20082;-79
2023/03/02 02:55:58;;;;;;;0.82;0.82;;;0.50;99.90;;;;;;4393238;32;20072;-78
2023/03/02 02:58:27;;;;;;;1.05;1.05;;;0.40;99.90;;;;;;4388558;32;20568;-79
2023/03/02 03:00:53;;;;;;;8.00;2.77;;;0.50;99.90;;;;;;4388959;32;20093;-78
2023/03/02 03:03:31;;;;;;;1.65;1.30;;;0.50;99.90;;;;;;4390917;32;20057;-78
2023/03/02 03:05:58;;;;;;;0.93;0.93;;;0.50;99.90;;;;;;4391165;32;20133;-78
2023/03/02 03:08:45;;;;;;;0.80;0.80;;;0.50;99.90;;;;;;4389560;32;20090;-79
2023/03/02 03:11:14;;;;;;;0.68;0.68;;;0.50;99.90;;;;;;4377388;32;20085;-77
2023/03/02 03:13:42;;;;;;;0.62;0.62;;;0.60;99.90;;;;;;4391279;32;20085;-78
2023/03/02 03:16:12;;;;;;;0.60;0.60;;;0.50;99.90;;;;;;4391995;32;20151;-77
2023/03/02 03:18:41;;;;;;;0.98;0.98;;;0.50;99.90;;;;;;4389108;32;20543;-79
2023/03/02 03:21:06;;;;;;;4.57;1.67;;;0.50;99.90;;;;;;4387013;32;20561;-78
2023/03/02 03:23:36;;;;;;;0.85;0.85;;;0.50;99.90;;;;;;4385281;32;20184;-78
2023/03/02 03:26:04;;;;;;;12.65;3.40;;;0.60;99.90;;;;;;4389265;32;20121;-78
2023/03/02 03:28:30;;;;;;;1.42;1.33;;;0.60;99.90;;;;;;4387366;32;20498;-78
2023/03/02 03:30:55;;;;;;;1.92;1.83;;;0.60;99.90;;;;;;4387915;32;20067;-78
2023/03/02 03:33:21;;;;;;;0.90;0.90;;;0.60;99.90;;;;;;4389458;32;20833;-78
2023/03/02 03:35:46;;;;;;;0.73;0.73;;;0.60;99.90;;;;;;4390321;32;20070;-78
2023/03/02 03:38:11;;;;;;;3.35;1.48;;;0.70;99.90;;;;;;4389590;32;20137;-77
2023/03/02 03:40:37;;;;;;;3.12;1.77;;;0.70;99.90;;;;;;4388120;32;20085;-78
2023/03/02 03:43:03;;;;;;;0.88;0.88;;;0.60;99.90;;;;;;4390757;32;20560;-78
2023/03/02 03:45:32;;;;;;;0.95;0.95;;;0.60;99.90;;;;;;4393611;32;20090;-77
2023/03/02 03:47:58;;;;;;;0.82;0.77;;;0.60;99.90;;;;;;4392751;32;20315;-78
2023/03/02 03:50:23;;;;;;;1.65;1.52;;;0.60;99.90;;;;;;4388029;32;20781;-78
2023/03/02 03:52:52;;;;;;;1.33;1.08;;;0.50;99.90;;;;;;4391114;32;20078;-77
2023/03/02 03:55:18;;;;;;;1.08;0.93;;;0.50;99.90;;;;;;4390535;32;20165;-78
2023/03/02 03:57:44;;;;;;;0.70;0.70;;;0.60;99.90;;;;;;4387627;32;20102;-76
2023/03/02 04:00:13;;;;;;;1.05;1.00;;;0.50;99.90;;;;;;4392783;32;21356;-77
2023/03/02 04:02:39;;;;;;;0.65;0.65;;;0.40;99.90;;;;;;4387987;32;20484;-76
2023/03/02 04:05:06;;;;;;;0.77;0.77;;;0.30;99.90;;;;;;4387262;32;20090;-78
2023/03/02 04:07:32;;;;;;;0.65;0.65;;;0.40;99.90;;;;;;4390317;32;20811;-77
2023/03/02 04:10:02;;;;;;;0.60;0.60;;;0.30;99.90;;;;;;4390939;32;20558;-78
2023/03/02 04:12:30;;;;;;;2.83;1.90;;;0.10;99.90;;;;;;4392390;32;20082;-78
2023/03/02 04:14:56;;;;;;;1.00;1.00;;;0.00;99.90;;;;;;4393133;32;20486;-77
2023/03/02 04:17:21;;;;;;;0.70;0.70;;;0.10;99.90;;;;;;4392202;32;20175;-78
2023/03/02 04:19:47;;;;;;;2.70;1.92;;;0.00;99.90;;;;;;4394189;32;20074;-78
2023/03/02 04:22:14;;;;;;;1.15;1.12;;;0.10;99.90;;;;;;4392990;32;20085;-79
2023/03/02 04:24:39;;;;;;;1.65;1.45;;;0.10;99.90;;;;;;4390896;32;20146;-78
2023/03/02 04:27:05;;;;;;;0.75;0.75;;;0.20;99.90;;;;;;4392370;32;20465;-78
2023/03/02 04:29:31;;;;;;;0.68;0.68;;;0.30;99.90;;;;;;4394353;32;20593;-78
2023/03/02 04:31:56;;;;;;;0.85;0.85;;;0.40;99.90;;;;;;4390593;32;20448;-78
2023/03/02 04:34:24;;;;;;;0.60;0.60;;;0.30;99.90;;;;;;4392040;32;20083;-77
2023/03/02 04:36:50;;;;;;;0.70;0.70;;;0.10;99.90;;;;;;4390915;32;20074;-77
2023/03/02 04:39:17;;;;;;;1.20;1.20;;;-0.10;99.90;;;;;;4389730;32;20110;-77
2023/03/02 04:41:44;;;;;;;5.20;1.92;;;-0.10;99.90;;;;;;4390635;32;20121;-76
2023/03/02 04:44:10;;;;;;;0.82;0.82;;;0.00;99.90;;;;;;4393613;32;20124;-76
2023/03/02 04:46:36;;;;;;;0.60;0.60;;;0.00;99.90;;;;;;4391116;32;20102;-78
2023/03/02 04:49:03;;;;;;;0.80;0.80;;;-0.10;99.90;;;;;;4393953;32;20493;-77
2023/03/02 04:51:32;;;;;;;1.08;1.08;;;-0.10;99.90;;;;;;4390206;32;20087;-78
2023/03/02 04:54:00;;;;;;;0.57;0.57;;;-0.10;99.90;;;;;;4391768;32;20059;-79
2023/03/02 04:56:26;;;;;;;3.03;2.35;;;0.10;99.90;;;;;;4393957;32;20073;-78
2023/03/02 04:58:51;;;;;;;2.45;1.80;;;0.20;99.90;;;;;;4391775;32;20124;-76
2023/03/02 05:01:19;;;;;;;1.25;1.15;;;0.30;99.90;;;;;;4391274;32;20125;-80
2023/03/02 05:03:45;;;;;;;1.45;1.35;;;0.10;99.90;;;;;;4392666;32;20075;-77
2023/03/02 05:06:11;;;;;;;1.70;1.60;;;-0.10;99.90;;;;;;4393062;32;20544;-76
2023/03/02 05:08:37;;;;;;;1.20;1.10;;;-0.10;99.90;;;;;;4393466;32;20106;-78
2023/03/02 05:11:03;;;;;;;0.62;0.62;;;-0.10;99.90;;;;;;4391037;32;20074;-78
2023/03/02 05:13:29;;;;;;;1.48;1.37;;;-0.20;99.90;;;;;;4392086;32;20070;-77
2023/03/02 05:15:57;;;;;;;0.57;0.57;;;-0.20;99.90;;;;;;4387946;32;20140;-78
2023/03/02 05:18:23;;;;;;;0.90;0.90;;;-0.40;99.90;;;;;;4391062;32;20086;-79
2023/03/02 05:20:49;;;;;;;0.50;0.50;;;-0.40;99.90;;;;;;4388799;32;20101;-76
2023/03/02 05:23:22;;;;;;;1.02;0.90;;;-0.40;99.90;;;;;;4385919;32;20066;-78
2023/03/02 05:25:49;;;;;;;0.77;0.77;;;-0.40;99.90;;;;;;4391133;32;20150;-78
2023/03/02 05:28:15;;;;;;;1.62;1.17;;;-0.30;99.90;;;;;;4390546;32;20525;-79
2023/03/02 05:30:41;;;;;;;0.68;0.68;;;-0.20;99.90;;;;;;4391722;32;20148;-77
2023/03/02 05:33:07;;;;;;;0.70;0.70;;;-0.20;99.90;;;;;;4391450;32;20078;-78
2023/03/02 05:35:33;;;;;;;0.57;0.57;;;-0.10;99.90;;;;;;4387789;32;20085;-77
2023/03/02 05:37:59;;;;;;;0.52;0.52;;;0.10;99.90;;;;;;4389388;32;20122;-79
2023/03/02 05:40:24;;;;;;;1.75;1.02;;;0.00;99.90;;;;;;4391414;32;20137;-78
2023/03/02 05:42:50;;;;;;;0.85;0.85;;;-0.10;99.90;;;;;;4391476;32;20249;-79
2023/03/02 05:45:21;;;;;;;0.40;0.40;;;-0.20;99.90;;;;;;4391007;32;20396;-78
2023/03/02 05:47:46;;;;;;;;;;;-0.20;99.90;;;;;;4389562;32;20086;-78
2023/03/02 05:50:12;;;;;;;0.50;0.50;;;-0.20;99.90;;;;;;4392486;32;20007;-79
2023/03/02 05:52:38;;;;;;;1.75;1.40;;;-0.20;99.90;;;;;;4392484;32;20055;-77
2023/03/02 05:55:03;;;;;;;1.25;0.93;;;-0.20;99.90;;;;;;4386565;32;20191;-79
2023/03/02 05:57:29;;;;;;;0.57;0.57;;;-0.20;99.90;;;;;;4389500;32;20061;-79
2023/03/02 05:59:55;;;;;;;0.60;0.60;;;-0.10;99.90;;;;;;4390425;32;20098;-79
2023/03/02 06:02:20;;;;;;;3.28;2.00;;;0.00;99.90;;;;;;4384978;32;20074;-76
2023/03/02 06:04:46;;;;;;;1.40;1.30;;;0.10;99.90;;;;;;4388169;32;20089;-78
2023/03/02 06:07:12;;;;;;;11.60;1.85;;;0.10;99.90;;;;;;4388023;32;20529;-79
2023/03/02 06:09:38;;;;;;;9.60;1.87;;;0.10;99.90;;;;;;4389284;32;20189;-79
2023/03/02 06:12:05;;;;;;;0.90;0.82;;;0.10;99.90;;;;;;4386248;32;20117;-79
2023/03/02 06:14:31;;;;;;;0.85;0.85;;;0.10;99.90;;;;;;4384337;32;20081;-79
2023/03/02 06:16:57;;;;;;;3.62;1.60;;;0.10;99.90;;;;;;4375311;32;20866;-75
2023/03/02 06:19:23;;;;;;;14.35;2.78;;;0.20;99.90;;;;;;4383772;32;20077;-77
2023/03/02 06:21:48;;;;;;;1.70;1.60;;;0.20;99.90;;;;;;4387758;32;20094;-78
2023/03/02 06:24:14;;;;;;;1.60;1.50;;;0.30;99.90;;;;;;4388742;32;20605;-78
2023/03/02 06:26:39;;;;;;;0.95;0.65;;;0.30;99.90;;;;;;4375749;32;20101;-81
2023/03/02 06:29:06;;;;;;;1.25;1.15;;;0.20;99.90;;;;;;4386107;32;20085;-76
2023/03/02 06:31:33;;;;;;;0.80;0.80;;;0.20;99.90;;;;;;4365502;32;20169;-77
2023/03/02 06:33:59;;;;;;;1.73;1.62;;;0.10;99.90;;;;;;4378305;32;20074;-78
2023/03/02 06:36:25;;;;;;;0.70;0.70;;;0.20;99.90;;;;;;4379194;32;20073;-78
2023/03/02 06:38:50;;;;;;;1.40;1.17;;;0.20;99.90;;;;;;4377752;32;20796;-78
2023/03/02 06:41:16;;;;;;;1.05;0.93;;;0.30;99.90;;;;;;4380737;32;20094;-80
2023/03/02 06:43:42;;;;;;;0.80;0.80;;;0.40;99.90;;;;;;4379133;32;20095;-80
2023/03/02 06:46:09;;;;;;;0.60;0.60;;;0.50;99.90;;;;;;4379383;32;20098;-78
2023/03/02 06:48:34;;;;;;;4.47;2.12;;;0.60;99.90;;;;;;4383233;32;20148;-75
2023/03/02 06:51:00;;;;;;;1.08;1.05;;;0.70;99.90;;;;;;4378554;32;20246;-78
2023/03/02 06:53:26;;;;;;;0.82;0.82;;;0.80;99.90;;;;;;4371782;32;20086;-76
2023/03/02 06:55:51;;;;;;;1.40;1.30;;;0.90;99.90;;;;;;4377139;32;20081;-75
2023/03/02 06:58:17;;;;;;;1.40;1.30;;;1.00;99.90;;;;;;4374093;32;20901;-75
2023/03/02 07:00:42;;;;;;;2.17;1.25;;;1.10;99.90;;;;;;4363273;32;20058;-78
2023/03/02 07:03:08;;;;;;;2.37;1.85;;;1.20;99.90;;;;;;4340908;32;20114;-78
2023/03/02 07:05:35;;;;;;;0.60;0.60;;;1.30;99.90;;;;;;4345897;32;20656;-78
2023/03/02 07:08:01;;;;;;;1.25;0.93;;;1.30;99.90;;;;;;4341560;32;20939;-78
2023/03/02 07:10:27;;;;;;;1.62;1.52;;;1.30;99.90;;;;;;4347538;32;20118;-76
2023/03/02 07:12:53;;;;;;;0.90;0.82;;;1.30;99.90;;;;;;4352157;32;20094;-79
2023/03/02 07:15:18;;;;;;;1.20;1.05;;;1.30;99.90;;;;;;4358103;32;20799;-77
2023/03/02 07:17:44;;;;;;;0.90;0.90;;;1.30;99.90;;;;;;4354340;32;20375;-78
2023/03/02 07:20:13;;;;;;;0.95;0.93;;;1.50;99.90;;;;;;4352954;32;20180;-75
2023/03/02 07:22:39;;;;;;;0.40;0.40;;;1.70;99.90;;;;;;4354836;32;20597;-77
2023/03/02 07:25:05;;;;;;;1.52;0.93;;;1.80;99.90;;;;;;4349709;32;20345;-78
2023/03/02 07:27:31;;;;;;;5.62;1.35;;;1.80;99.90;;;;;;4351878;32;20135;-77
2023/03/02 07:29:57;;;;;;;1.10;1.10;;;1.90;99.90;;;;;;4357453;32;20077;-79
2023/03/02 07:32:23;;;;;;;6.10;2.12;;;2.10;99.90;;;;;;4354223;32;20114;-77
2023/03/02 07:34:48;;;;;;;1.60;1.35;;;2.30;99.90;;;;;;4359444;32;20189;-77
2023/03/02 07:37:14;;;;;;;5.95;1.70;;;2.30;99.90;;;;;;4353744;32;20164;-76
2023/03/02 07:39:40;;;;;;;2.22;1.15;;;2.40;99.90;;;;;;4362766;32;20102;-78
2023/03/02 07:42:07;;;;;;;1.55;1.40;;;2.40;99.90;;;;;;4349101;32;20703;-76
2023/03/02 07:44:33;;;;;;;0.82;0.82;;;2.40;99.90;;;;;;4347833;32;20094;-76
2023/03/02 07:46:59;;;;;;;1.02;1.02;;;2.60;99.90;;;;;;4356356;32;20445;-77
2023/03/02 07:49:25;;;;;;;4.15;2.08;;;2.60;99.90;;;;;;4358360;32;20125;-77
2023/03/02 07:51:51;;;;;;;1.40;1.30;;;2.70;99.90;;;;;;4355968;32;20253;-78
2023/03/02 07:54:17;;;;;;;0.85;0.85;;;2.70;99.90;;;;;;4358339;32;20058;-77
2023/03/02 07:56:42;;;;;;;1.35;1.25;;;2.70;99.90;;;;;;4351608;32;20672;-77
2023/03/02 07:59:09;;;;;;;2.67;2.00;;;2.70;99.90;;;;;;4348800;32;20510;-77
2023/03/02 08:01:35;;;;;;;2.40;1.40;;;2.80;99.90;;;;;;4352616;32;20785;-78
2023/03/02 08:04:00;;;;;;;1.50;1.33;;;2.80;99.90;;;;;;4343628;32;20200;-78
2023/03/02 08:06:26;;;;;;;0.98;0.98;;;3.00;99.90;;;;;;4341355;32;20097;-78
2023/03/02 08:08:51;;;;;;;1.30;1.20;;;2.90;99.90;;;;;;4344875;32;20447;-77
2023/03/02 08:11:17;;;;;;;1.00;0.95;;;3.00;99.90;;;;;;4344248;32;20691;-77
2023/03/02 08:13:44;;;;;;;4.95;1.37;;;3.00;99.90;;;;;;4342888;32;20086;-77
2023/03/02 08:16:12;;;;;;;0.98;0.98;;;3.00;99.90;;;;;;4339837;32;20128;-76
2023/03/02 08:18:39;;;;;;;10.32;1.85;;;3.10;99.90;;;;;;4345826;32;20101;-76
2023/03/02 08:21:23;;;;;;;3.00;2.10;;;3.00;99.90;;;;;;4351828;32;21221;-76
2023/03/02 08:23:49;;;;;;;1.05;0.80;;;3.10;99.90;;;;;;4354996;32;20445;-77
2023/03/02 08:26:15;;;;;;;1.60;1.42;;;3.40;99.90;;;;;;4350279;32;20078;-76
2023/03/02 08:28:41;;;;;;;6.75;2.20;;;3.40;99.90;;;;;;4345475;32;20908;-78
2023/03/02 08:31:07;;;;;;;2.22;2.03;;;3.30;99.90;;;;;;4354384;32;20245;-76
2023/03/02 08:33:34;;;;;;;0.93;0.93;;;3.30;99.90;;;;;;4345794;32;21720;-79
2023/03/02 08:36:03;;;;;;;2.05;1.85;;;3.30;99.90;;;;;;4348598;32;20978;-76
2023/03/02 08:38:31;;;;;;;3.62;2.15;;;3.50;99.90;;;;;;4358107;32;20102;-78
2023/03/02 08:40:57;;;;;;;1.85;1.35;;;3.50;99.90;;;;;;4355471;32;20772;-74
2023/03/02 08:43:25;;;;;;;2.85;1.65;;;3.60;99.90;;;;;;4360829;32;20098;-77
2023/03/02 08:45:53;;;;;;;0.98;0.98;;;3.70;99.90;;;;;;4365470;32;20679;-76
2023/03/02 08:48:19;;;;;;;2.92;1.15;;;3.90;99.90;;;;;;4350124;32;20496;-77
2023/03/02 08:50:57;;;;;;;3.12;1.23;;;4.00;99.90;;;;;;4346991;32;20101;-76
2023/03/02 08:53:23;;;;;;;1.00;1.00;;;3.90;99.90;;;;;;4342098;32;20122;-75
2023/03/02 08:55:49;;;;;;;1.02;1.02;;;3.80;99.90;;;;;;4345263;32;20398;-77
2023/03/02 08:58:14;;;;;;;1.27;1.05;;;3.90;99.90;;;;;;4362943;32;20690;-76
2023/03/02 09:00:40;;;;;;;2.42;1.55;;;4.10;99.90;;;;;;4345845;32;20203;-76
2023/03/02 09:03:05;;;;;;;1.15;1.05;;;4.20;99.90;;;;;;4360003;32;20949;-75
2023/03/02 09:05:31;;;;;;;1.00;0.93;;;4.20;99.90;;;;;;4355156;32;21889;-76
2023/03/02 09:07:56;;;;;;;1.00;1.00;;;4.20;99.90;;;;;;4358544;32;20099;-76
2023/03/02 09:10:22;;;;;;;1.77;1.52;;;4.40;99.90;;;;;;4354837;32;21495;-77
2023/03/02 09:12:47;;;;;;;8.20;1.65;;;4.50;99.90;;;;;;4355146;32;20149;-75
2023/03/02 09:15:13;;;;;;;1.35;1.12;;;4.50;99.90;;;;;;4345895;32;20106;-76
2023/03/02 09:17:38;;;;;;;3.45;1.87;;;4.50;99.90;;;;;;4348726;32;20090;-75
2023/03/02 09:20:05;;;;;;;2.03;1.80;;;4.40;99.90;;;;;;4356593;32;20089;-76
2023/03/02 09:22:30;;;;;;;1.25;1.15;;;4.40;99.90;;;;;;4350616;32;20455;-76
2023/03/02 09:24:56;;;;;;;3.00;1.58;;;4.60;99.90;;;;;;4359655;32;20106;-74
2023/03/02 09:27:21;;;;;;;6.40;1.77;;;4.70;99.90;;;;;;4356556;32;20086;-75
2023/03/02 09:29:47;;;;;;;5.32;1.52;;;4.80;99.90;;;;;;4355007;32;20115;-74
2023/03/02 09:32:14;;;;;;;5.45;2.12;;;4.90;99.90;;;;;;4347686;32;20181;-77
2023/03/02 09:34:40;;;;;;;4.05;2.17;;;4.80;99.90;;;;;;4346895;32;20585;-76
2023/03/02 09:37:05;;;;;;;1.48;1.35;;;5.10;99.90;;;;;;4353277;32;20081;-74
2023/03/02 09:39:31;;;;;;;5.25;1.37;;;5.10;99.90;;;;;;4347822;32;20861;-75
2023/03/02 09:42:18;;;;;;;8.77;2.15;;;5.30;99.90;;;;;;4341299;32;20559;-76
2023/03/02 09:45:02;;;;;;;2.70;1.45;;;5.40;99.90;;;;;;4342272;32;20105;-76
2023/03/02 09:47:52;;;;;;;1.60;1.48;;;5.60;99.90;;;;;;4345242;32;20165;-76
2023/03/02 09:50:37;;;;;;;3.03;1.70;;;5.80;99.90;;;;;;4343029;32;20098;-75
2023/03/02 09:53:19;;;;;;;13.68;3.03;;;5.90;99.90;;;;;;4352422;32;20128;-77
2023/03/02 09:55:49;;;;;;;0.65;0.65;;;6.00;99.90;;;;;;4345545;32;20098;-76
2023/03/02 09:58:18;;;;;;;1.70;1.60;;;6.10;99.90;;;;;;4349194;32;20691;-77
2023/03/02 10:00:45;;;;;;;7.35;2.55;;;6.00;99.90;;;;;;4343905;32;20232;-74
2023/03/02 10:03:22;;;;;;;1.52;1.42;;;6.20;99.90;;;;;;4354974;32;20227;-76
2023/03/02 10:05:50;;;;;;;8.60;3.00;;;6.10;99.90;;;;;;4344643;32;20238;-75
2023/03/02 10:08:20;;;;;;;2.50;1.75;;;6.30;99.90;;;;;;4343474;32;20164;-75
2023/03/02 10:10:56;;;;;;;6.28;1.67;;;6.40;99.90;;;;;;4350142;32;20161;-74
2023/03/02 10:13:36;;;;;;;9.63;3.12;;;6.60;99.90;;;;;;4336676;32;21114;-74
2023/03/02 10:16:09;;;;;;;2.20;1.58;;;6.80;99.90;;;;;;4335595;32;20098;-75
2023/03/02 10:18:43;;;;;;;6.50;1.27;;;6.90;99.90;;;;;;4353005;32;20542;-75
2023/03/02 10:21:36;;;;;;;2.25;1.12;;;6.90;99.90;;;;;;4353217;32;20334;-75
2023/03/02 10:24:12;;;;;;;1.17;1.05;;;7.00;99.90;;;;;;4334479;32;20943;-75
2023/03/02 10:26:43;;;;;;;2.62;1.50;;;7.00;99.90;;;;;;4323611;32;20273;-73
2023/03/02 10:29:37;;;;;;;1.25;0.88;;;7.20;99.90;;;;;;4329629;32;20439;-74
2023/03/02 10:32:17;;;;;;;1.48;1.10;;;7.10;99.90;;;;;;4341238;32;20098;-74
2023/03/02 10:34:43;;;;;;;7.12;1.52;;;7.20;99.90;;;;;;4356615;32;20200;-75
2023/03/02 10:37:12;;;;;;;7.97;1.45;;;7.40;99.90;;;;;;4348730;32;20130;-74
2023/03/02 10:39:37;;;;;;;2.92;2.00;;;7.40;99.90;;;;;;4351850;32;20086;-74
2023/03/02 10:42:06;;;;;;;4.93;1.40;;;7.30;99.90;;;;;;4340912;32;20077;-75
2023/03/02 10:44:36;;;;;;;2.05;1.55;;;7.40;99.90;;;;;;4351831;32;20118;-75
2023/03/02 10:47:03;;;;;;;11.05;2.28;;;7.40;99.90;;;;;;4353455;32;20082;-74
2023/03/02 10:49:32;;;;;;;1.85;1.50;;;7.50;99.90;;;;;;4357359;32;20120;-74
2023/03/02 10:52:19;;;;;;;5.70;1.58;;;7.50;99.90;;;;;;4343930;32;20160;-73
2023/03/02 10:54:46;;;;;;;1.48;1.33;;;7.30;99.90;;;;;;4339164;32;20110;-73
2023/03/02 10:57:30;;;;;;;1.52;1.42;;;7.30;99.90;;;;;;4342590;32;20109;-73
2023/03/02 11:00:00;;;;;;;3.20;1.73;;;7.30;99.90;;;;;;4351959;32;20406;-75
2023/03/02 11:02:30;;;;;;;2.30;1.37;;;7.40;99.90;;;;;;4355835;32;20094;-74
2023/03/02 11:04:58;;;;;;;2.95;1.40;;;7.30;99.90;;;;;;4360712;32;20103;-75
2023/03/02 11:07:28;;;;;;;0.73;0.73;;;7.30;99.90;;;;;;4353734;32;20106;-74
2023/03/02 11:10:18;;;;;;;3.20;1.15;;;7.40;99.90;;;;;;4356287;32;20082;-75
2023/03/02 11:12:46;;;;;;;2.05;1.10;;;7.60;99.90;;;;;;4344885;32;20138;-74
2023/03/02 11:15:25;;;;;;;0.65;0.65;;;7.80;99.90;;;;;;4349078;32;20117;-74
2023/03/02 11:18:14;;;;;;;1.45;0.93;;;8.10;99.90;;;;;;4339930;32;20102;-74
2023/03/02 11:20:45;;;;;;;3.03;1.33;;;8.20;99.90;;;;;;4333854;32;20192;-74
2023/03/02 11:23:19;;;;;;;0.90;0.90;;;8.20;99.90;;;;;;4352700;32;21000;-75
2023/03/02 11:25:52;;;;;;;2.12;1.42;;;8.10;99.90;;;;;;4354420;32;21763;-73
2023/03/02 11:28:26;;;;;;;0.65;0.65;;;8.20;99.90;;;;;;4363280;32;20222;-74
2023/03/02 11:30:54;;;;;;;1.55;1.40;;;8.80;99.90;;;;;;4364791;32;20469;-74
2023/03/02 11:33:28;;;;;;;0.77;0.77;;;8.90;99.90;;;;;;4369976;32;20149;-75
2023/03/02 11:36:01;;;;;;;20.62;1.50;;;8.80;99.90;;;;;;4371474;32;20145;-74
2023/03/02 11:38:31;;;;;;;4.25;2.60;;;8.90;99.90;;;;;;4364482;32;20123;-73
2023/03/02 11:41:02;;;;;;;5.15;2.12;;;8.70;99.90;;;;;;4372564;32;20094;-73
2023/03/02 11:43:28;;;;;;;7.00;1.80;;;8.80;99.90;;;;;;4366164;32;100290;-74
2023/03/02 11:46:04;;;;;;;1.12;1.05;;;8.90;99.90;;;;;;4373856;32;20605;-74
2023/03/02 11:48:40;;;;;;;2.05;1.12;;;8.70;99.90;;;;;;4370857;32;20632;-73
2023/03/02 11:51:12;;;;;;;4.95;1.85;;;8.70;99.90;;;;;;4370064;32;20337;-74
2023/03/02 11:53:52;;;;;;;1.10;0.88;;;9.10;99.90;;;;;;4366056;32;20149;-73
2023/03/02 11:56:17;;;;;;;18.27;3.08;;;9.30;99.90;;;;;;4346944;32;20114;-73
2023/03/02 11:58:47;;;;;;;2.92;1.00;;;9.30;99.90;;;;;;4342613;32;20517;-72
2023/03/02 12:01:19;;;;;;;4.10;1.62;;;9.40;99.90;;;;;;4346770;32;21364;-73
2023/03/02 12:03:46;;;;;;;0.90;0.90;;;9.50;99.90;;;;;;4360525;32;20372;-73
2023/03/02 12:06:36;;;;;;;3.60;0.90;;;9.80;99.90;;;;;;4361881;32;20837;-72
2023/03/02 12:09:32;;;;;;;0.50;0.50;;;9.90;99.90;;;;;;4345508;32;20118;-74
2023/03/02 12:12:15;;;;;;;0.80;0.80;;;10.30;99.90;;;;;;4336219;32;20103;-74
2023/03/02 12:14:42;;;;;;;40.45;2.03;;;10.80;99.90;;;;;;4358463;32;20517;-73
2023/03/02 12:17:21;;;;;;;1.27;1.10;;;10.50;99.90;;;;;;4355223;32;21469;-73
2023/03/02 12:19:49;;;;;;;1.65;1.45;;;10.20;99.90;;;;;;4348464;32;20528;-73
2023/03/02 12:22:26;;;;;;;1.55;1.05;;;10.70;99.90;;;;;;4352794;32;20093;-73
2023/03/02 12:25:02;;;;;;;1.15;1.05;;;11.20;99.90;;;;;;4353515;32;20089;-73
2023/03/02 12:27:35;;;;;;;1.65;1.02;;;11.40;99.90;;;;;;4351622;32;20166;-73
2023/03/02 12:30:23;;;;;;;1.08;0.98;;;11.40;99.90;;;;;;4350662;32;20389;-73
2023/03/02 12:33:10;;;;;;;1.12;0.90;;;11.40;99.90;;;;;;4354676;32;20148;-73
2023/03/02 12:35:37;;;;;;;2.22;0.73;;;11.40;99.90;;;;;;4337478;32;20778;-73
2023/03/02 12:38:15;;;;;;;0.60;0.60;;;11.30;99.90;;;;;;4354993;32;20089;-73
2023/03/02 12:41:13;;;;;;;1.33;1.20;;;11.30;99.90;;;;;;4344199;32;20620;-73
2023/03/02 12:43:49;;;;;;;0.85;0.62;;;11.40;99.90;;;;;;4338485;32;20114;-74
2023/03/02 12:46:33;;;;;;;4.57;0.80;;;12.00;99.90;;;;;;4351262;32;20488;-73
2023/03/02 12:49:26;;;;;;;5.10;1.98;;;11.90;99.90;;;;;;4359097;32;21793;-73
2023/03/02 12:51:57;;;;;;;0.65;0.65;;;11.70;99.90;;;;;;4368941;32;20154;-73
2023/03/02 12:54:23;;;;;;;;;;;12.00;99.90;;;;;;4359254;32;20086;-74
2023/03/02 12:57:00;;;;;;;0.75;0.75;;;12.70;99.90;;;;;;4370394;32;19989;-73
2023/03/02 12:59:27;;;;;;;0.50;0.50;;;13.00;99.90;;;;;;4358673;32;20082;-73
2023/03/02 13:02:15;;;;;;;2.47;0.80;;;12.70;99.90;;;;;;4364425;32;20125;-74
2023/03/02 13:04:41;;;;;;;3.42;1.50;;;12.40;99.90;;;;;;4364634;32;20070;-74